Time;durP1;ratioP1;P1;durP2;ratioP2;P2;SDS_P1;SDS_P2;PMS_P1;PMS_P2;Temp;Humidity;BMP_temperature;BMP_pressure;BME280_temperature;BME280_humidity;BME280_pressure;Samples;Min_cycle;Max_cycle;Signal;HPM_P1;HPM_P2
2022/02/16 00:02:04;;;;;;;8.50;3.10;;;;;;;;;;5052948;28;20195;-84
2022/02/16 00:04:32;;;;;;;6.23;2.37;;;;;;;;;;5053354;28;20195;-85
2022/02/16 00:06:59;;;;;;;9.30;2.50;;;;;;;;;;5052349;28;20228;-85
2022/02/16 00:09:26;;;;;;;11.60;3.40;;;;;;;;;;5052898;28;20226;-85
2022/02/16 00:11:53;;;;;;;8.83;3.57;;;;;;;;;;5051940;28;20203;-84
2022/02/16 00:14:21;;;;;;;10.43;3.43;;;;;;;;;;5052794;28;20318;-84
2022/02/16 00:16:48;;;;;;;9.60;3.63;;;;;;;;;;5052876;28;20278;-85
2022/02/16 00:19:17;;;;;;;10.43;4.00;;;;;;;;;;5052855;28;20231;-84
2022/02/16 00:21:44;;;;;;;8.53;3.10;;;;;;;;;;5051289;28;20671;-84
2022/02/16 00:24:11;;;;;;;5.43;2.33;;;;;;;;;;5052327;28;20286;-85
2022/02/16 00:26:38;;;;;;;6.87;2.60;;;;;;;;;;5051949;28;20217;-85
2022/02/16 00:29:06;;;;;;;6.00;1.90;;;;;;;;;;5053079;28;20235;-85
2022/02/16 00:31:33;;;;;;;7.27;2.17;;;;;;;;;;5052070;28;20651;-85
2022/02/16 00:34:00;;;;;;;5.90;2.17;;;;;;;;;;5051749;28;20215;-85
2022/02/16 00:36:29;;;;;;;5.80;1.80;;;;;;;;;;5051585;28;20208;-84
2022/02/16 00:38:56;;;;;;;5.47;1.77;;;;;;;;;;5051879;28;20232;-84
2022/02/16 00:41:23;;;;;;;4.77;2.10;;;;;;;;;;5051775;28;20286;-85
2022/02/16 00:43:51;;;;;;;11.47;3.83;;;;;;;;;;5051297;28;20224;-85
2022/02/16 00:46:18;;;;;;;10.80;3.30;;;;;;;;;;5052446;28;20226;-85
2022/02/16 00:48:45;;;;;;;11.37;4.00;;;;;;;;;;5052241;28;20275;-84
2022/02/16 00:51:12;;;;;;;15.67;4.57;;;;;;;;;;5052156;28;20199;-85
2022/02/16 00:53:41;;;;;;;16.30;5.50;;;;;;;;;;5052381;28;20257;-85
2022/02/16 00:56:08;;;;;;;15.33;4.73;;;;;;;;;;5051269;28;20317;-85
2022/02/16 00:58:35;;;;;;;13.07;4.70;;;;;;;;;;5052501;28;20227;-84
2022/02/16 01:01:02;;;;;;;12.27;4.50;;;;;;;;;;5051986;28;20612;-84
2022/02/16 01:03:30;;;;;;;15.70;5.37;;;;;;;;;;5051946;28;20231;-84
2022/02/16 01:05:57;;;;;;;17.10;5.30;;;;;;;;;;5052009;28;20586;-84
2022/02/16 01:08:24;;;;;;;10.57;3.47;;;;;;;;;;5051345;28;20285;-85
2022/02/16 01:10:53;;;;;;;7.07;3.27;;;;;;;;;;5051970;28;20227;-84
2022/02/16 01:13:21;;;;;;;4.57;1.67;;;;;;;;;;5051420;28;20196;-85
2022/02/16 01:15:48;;;;;;;2.67;1.13;;;;;;;;;;5051845;28;20603;-85
2022/02/16 01:18:15;;;;;;;3.03;0.80;;;;;;;;;;5051996;28;20232;-84
2022/02/16 01:20:42;;;;;;;4.07;0.70;;;;;;;;;;5050590;28;20719;-85
2022/02/16 01:23:10;;;;;;;3.43;1.03;;;;;;;;;;5051298;28;20207;-84
2022/02/16 01:25:37;;;;;;;3.67;1.13;;;;;;;;;;5051453;28;20223;-84
2022/02/16 01:28:06;;;;;;;1.60;0.90;;;;;;;;;;5051688;28;20633;-85
2022/02/16 01:30:33;;;;;;;2.97;1.00;;;;;;;;;;5051012;28;20242;-85
2022/02/16 01:33:00;;;;;;;5.37;1.40;;;;;;;;;;5050427;28;20219;-85
2022/02/16 01:35:27;;;;;;;5.03;1.70;;;;;;;;;;5050669;28;20293;-85
2022/02/16 01:37:55;;;;;;;9.17;2.17;;;;;;;;;;5050778;28;20208;-84
2022/02/16 01:40:22;;;;;;;11.33;2.50;;;;;;;;;;5051150;28;20655;-84
2022/02/16 01:42:49;;;;;;;12.73;2.80;;;;;;;;;;5050927;28;20307;-85
2022/02/16 01:45:24;;;;;;;7.60;2.63;;;;;;;;;;5050404;28;20227;-84
2022/02/16 01:47:51;;;;;;;11.63;3.67;;;;;;;;;;5050940;28;20191;-84
2022/02/16 01:50:19;;;;;;;10.60;3.63;;;;;;;;;;5050890;28;20675;-85
2022/02/16 01:52:46;;;;;;;13.83;3.87;;;;;;;;;;5051020;28;20204;-85
2022/02/16 01:55:13;;;;;;;15.07;4.10;;;;;;;;;;5050761;28;20336;-86
2022/02/16 01:57:41;;;;;;;17.80;4.90;;;;;;;;;;5051345;28;20223;-85
2022/02/16 02:00:09;;;;;;;19.57;5.50;;;;;;;;;;5050228;28;20632;-85
2022/02/16 02:02:38;;;;;;;20.20;5.83;;;;;;;;;;5050864;28;20204;-85
2022/02/16 02:05:06;;;;;;;15.50;5.10;;;;;;;;;;5051903;28;20223;-86
2022/02/16 02:07:35;;;;;;;15.27;4.37;;;;;;;;;;5050875;28;20246;-85
2022/02/16 02:10:02;;;;;;;11.83;2.90;;;;;;;;;;5051662;28;20246;-85
2022/02/16 02:12:30;;;;;;;11.23;2.60;;;;;;;;;;5051300;28;20294;-85
2022/02/16 02:14:57;;;;;;;6.57;1.37;;;;;;;;;;5051444;28;20302;-85
2022/02/16 02:17:24;;;;;;;6.13;1.53;;;;;;;;;;5047708;28;20199;-85
2022/02/16 02:19:53;;;;;;;8.90;1.60;;;;;;;;;;5050980;28;20265;-85
2022/02/16 02:22:22;;;;;;;6.37;1.60;;;;;;;;;;5051444;28;20623;-86
2022/02/16 02:24:49;;;;;;;8.43;1.63;;;;;;;;;;5050978;28;20284;-85
2022/02/16 02:27:16;;;;;;;12.73;2.13;;;;;;;;;;5051392;28;20238;-85
2022/02/16 02:29:43;;;;;;;8.40;2.00;;;;;;;;;;5050769;28;20204;-85
2022/02/16 02:32:10;;;;;;;11.50;2.07;;;;;;;;;;5050975;28;20630;-86
2022/02/16 02:34:38;;;;;;;9.63;1.83;;;;;;;;;;5051058;28;20247;-86
2022/02/16 02:37:05;;;;;;;11.03;2.30;;;;;;;;;;5049994;28;20227;-86
2022/02/16 02:39:34;;;;;;;10.63;2.30;;;;;;;;;;5051370;28;20204;-85
2022/02/16 02:42:01;;;;;;;9.90;2.20;;;;;;;;;;5049715;28;20283;-86
2022/02/16 02:44:28;;;;;;;10.43;2.00;;;;;;;;;;5053678;28;20247;-85
2022/02/16 02:46:56;;;;;;;8.63;1.80;;;;;;;;;;5054567;28;20230;-85
2022/02/16 02:49:23;;;;;;;8.70;1.90;;;;;;;;;;5054860;28;20258;-86
2022/02/16 02:51:50;;;;;;;9.90;2.00;;;;;;;;;;5054853;28;20223;-85
2022/02/16 02:54:18;;;;;;;8.53;2.00;;;;;;;;;;5053916;28;20225;-85
2022/02/16 02:56:46;;;;;;;7.10;2.00;;;;;;;;;;5054329;28;20255;-86
2022/02/16 02:59:14;;;;;;;10.70;1.90;;;;;;;;;;5054244;28;20584;-86
2022/02/16 03:01:41;;;;;;;8.00;1.67;;;;;;;;;;5054387;28;20204;-85
2022/02/16 03:04:08;;;;;;;9.77;1.80;;;;;;;;;;5054901;28;20210;-85
2022/02/16 03:06:36;;;;;;;9.03;1.90;;;;;;;;;;5053257;28;20903;-85
2022/02/16 03:09:03;;;;;;;8.67;1.50;;;;;;;;;;5055468;28;20227;-85
2022/02/16 03:11:30;;;;;;;7.87;1.50;;;;;;;;;;5054150;28;20231;-85
2022/02/16 03:13:59;;;;;;;9.30;1.47;;;;;;;;;;5054300;28;20663;-85
2022/02/16 03:16:26;;;;;;;5.90;1.40;;;;;;;;;;5054281;28;20307;-85
2022/02/16 03:18:53;;;;;;;5.80;1.40;;;;;;;;;;5054089;28;20207;-84
2022/02/16 03:21:20;;;;;;;5.70;1.00;;;;;;;;;;5054113;28;20648;-85
2022/02/16 03:23:48;;;;;;;4.93;0.90;;;;;;;;;;5053488;28;20250;-85
2022/02/16 03:26:15;;;;;;;3.37;0.93;;;;;;;;;;5053963;28;20687;-85
2022/02/16 03:28:42;;;;;;;5.67;1.00;;;;;;;;;;5053334;28;20227;-85
2022/02/16 03:31:11;;;;;;;6.30;0.90;;;;;;;;;;5050801;28;20257;-86
2022/02/16 03:33:38;;;;;;;5.47;0.90;;;;;;;;;;5049847;28;20686;-86
2022/02/16 03:36:05;;;;;;;3.97;1.10;;;;;;;;;;5052839;28;20219;-85
2022/02/16 03:38:32;;;;;;;3.50;0.73;;;;;;;;;;5053101;28;20223;-86
2022/02/16 03:41:00;;;;;;;6.17;0.90;;;;;;;;;;5038935;28;20642;-86
2022/02/16 03:43:27;;;;;;;3.30;0.80;;;;;;;;;;5052611;28;20298;-86
2022/02/16 03:45:54;;;;;;;4.83;0.80;;;;;;;;;;5053900;28;20315;-85
2022/02/16 03:48:23;;;;;;;6.40;1.00;;;;;;;;;;5053403;28;20200;-86
2022/02/16 03:50:50;;;;;;;5.17;0.80;;;;;;;;;;5053608;28;20274;-86
2022/02/16 03:53:19;;;;;;;4.97;0.70;;;;;;;;;;5053209;28;20661;-85
2022/02/16 03:55:46;;;;;;;3.73;0.70;;;;;;;;;;5052767;28;20219;-85
2022/02/16 03:58:14;;;;;;;4.93;0.90;;;;;;;;;;5053479;28;20300;-85
2022/02/16 04:00:41;;;;;;;5.93;1.00;;;;;;;;;;5053632;28;20214;-85
2022/02/16 04:03:09;;;;;;;4.07;0.80;;;;;;;;;;5053370;28;20296;-86
2022/02/16 04:05:40;;;;;;;5.13;0.90;;;;;;;;;;5052749;28;20196;-86
2022/02/16 04:08:07;;;;;;;3.53;0.63;;;;;;;;;;5053572;28;20195;-86
2022/02/16 04:10:34;;;;;;;3.83;0.77;;;;;;;;;;5052477;28;20711;-86
2022/02/16 04:13:02;;;;;;;5.17;1.10;;;;;;;;;;5053032;28;20230;-85
2022/02/16 04:15:29;;;;;;;4.37;1.03;;;;;;;;;;5052842;28;20254;-85
2022/02/16 04:17:56;;;;;;;3.53;0.90;;;;;;;;;;5052975;28;21050;-85
2022/02/16 04:20:24;;;;;;;4.10;0.90;;;;;;;;;;5052788;28;20249;-85
2022/02/16 04:22:53;;;;;;;5.63;1.10;;;;;;;;;;5052325;28;20200;-85
2022/02/16 04:25:20;;;;;;;4.80;1.20;;;;;;;;;;5052479;28;20286;-85
2022/02/16 04:27:48;;;;;;;4.03;1.10;;;;;;;;;;5053120;28;20219;-85
2022/02/16 04:30:17;;;;;;;5.50;1.27;;;;;;;;;;5053491;28;20231;-85
2022/02/16 04:32:44;;;;;;;5.80;1.10;;;;;;;;;;5052539;28;20200;-86
2022/02/16 04:35:11;;;;;;;5.57;1.30;;;;;;;;;;5052820;28;20290;-85
2022/02/16 04:37:38;;;;;;;5.77;1.27;;;;;;;;;;5053541;28;20245;-86
2022/02/16 04:40:08;;;;;;;3.40;1.23;;;;;;;;;;5052794;28;20242;-85
2022/02/16 04:42:35;;;;;;;4.23;1.20;;;;;;;;;;5052627;28;20245;-86
2022/02/16 04:45:03;;;;;;;6.50;1.30;;;;;;;;;;5052357;28;20715;-84
2022/02/16 04:47:30;;;;;;;7.83;1.53;;;;;;;;;;5052178;28;20274;-85
2022/02/16 04:49:57;;;;;;;5.57;1.40;;;;;;;;;;5052870;28;20218;-85
2022/02/16 04:52:34;;;;;;;5.90;1.80;;;;;;;;;;5051805;28;20294;-85
2022/02/16 04:55:01;;;;;;;6.50;1.40;;;;;;;;;;5052091;28;20210;-85
2022/02/16 04:57:30;;;;;;;7.73;1.57;;;;;;;;;;5051727;28;20196;-85
2022/02/16 04:59:58;;;;;;;4.27;1.03;;;;;;;;;;5052423;28;20751;-85
2022/02/16 05:02:26;;;;;;;6.57;1.40;;;;;;;;;;5051833;28;20238;-85
2022/02/16 05:04:53;;;;;;;3.97;1.23;;;;;;;;;;5044719;28;20195;-85
2022/02/16 05:07:21;;;;;;;5.17;1.20;;;;;;;;;;5067234;28;20210;-85
2022/02/16 05:09:48;;;;;;;6.97;1.57;;;;;;;;;;5051770;28;20217;-85
2022/02/16 05:12:15;;;;;;;4.70;1.17;;;;;;;;;;5052386;28;20284;-85
2022/02/16 05:14:44;;;;;;;10.63;1.60;;;;;;;;;;5051748;28;20196;-84
2022/02/16 05:17:11;;;;;;;5.93;1.20;;;;;;;;;;5051689;28;20259;-85
2022/02/16 05:19:39;;;;;;;5.10;1.20;;;;;;;;;;5051833;28;20581;-85
2022/02/16 05:22:06;;;;;;;5.83;1.37;;;;;;;;;;5051103;28;20761;-85
2022/02/16 05:24:33;;;;;;;5.23;1.33;;;;;;;;;;5051175;28;20675;-85
2022/02/16 05:27:00;;;;;;;5.47;1.30;;;;;;;;;;5051431;28;20238;-85
2022/02/16 05:29:28;;;;;;;6.50;1.50;;;;;;;;;;5051998;28;20668;-85
2022/02/16 05:31:56;;;;;;;3.90;1.40;;;;;;;;;;5051969;28;20261;-85
2022/02/16 05:34:24;;;;;;;5.90;1.40;;;;;;;;;;5052364;28;20246;-85
2022/02/16 05:36:52;;;;;;;6.33;1.33;;;;;;;;;;5051649;28;20708;-85
2022/02/16 05:39:19;;;;;;;6.07;1.20;;;;;;;;;;5050482;28;20200;-85
2022/02/16 05:41:47;;;;;;;6.80;1.27;;;;;;;;;;5051606;28;20578;-85
2022/02/16 05:44:14;;;;;;;5.10;1.50;;;;;;;;;;5050932;28;20243;-85
2022/02/16 05:46:41;;;;;;;4.73;1.17;;;;;;;;;;5051571;28;20679;-85
2022/02/16 05:49:12;;;;;;;4.93;1.27;;;;;;;;;;5051314;28;20223;-85
2022/02/16 05:51:39;;;;;;;5.67;1.23;;;;;;;;;;5051456;28;20196;-85
2022/02/16 05:54:07;;;;;;;3.53;0.80;;;;;;;;;;5052182;28;20231;-86
2022/02/16 05:56:34;;;;;;;4.03;1.20;;;;;;;;;;5051835;28;20700;-85
2022/02/16 05:59:02;;;;;;;5.80;1.27;;;;;;;;;;5051726;28;20207;-85
2022/02/16 06:01:29;;;;;;;8.93;1.80;;;;;;;;;;5051190;28;20600;-85
2022/02/16 06:03:56;;;;;;;4.40;1.10;;;;;;;;;;5051740;28;20279;-84
2022/02/16 06:06:25;;;;;;;7.83;1.43;;;;;;;;;;5051402;28;20630;-83
2022/02/16 06:08:52;;;;;;;8.27;1.80;;;;;;;;;;5050903;28;20651;-82
2022/02/16 06:11:19;;;;;;;5.10;1.70;;;;;;;;;;5051568;28;20207;-83
2022/02/16 06:13:47;;;;;;;6.70;1.80;;;;;;;;;;5050948;28;20235;-83
2022/02/16 06:16:14;;;;;;;6.63;1.90;;;;;;;;;;5051153;28;20251;-83
2022/02/16 06:18:41;;;;;;;7.33;1.70;;;;;;;;;;5054190;28;20238;-83
2022/02/16 06:21:08;;;;;;;7.67;1.57;;;;;;;;;;5055051;28;20227;-82
2022/02/16 06:23:37;;;;;;;6.97;1.77;;;;;;;;;;5054626;28;20199;-82
2022/02/16 06:26:04;;;;;;;5.27;1.63;;;;;;;;;;5054542;28;20235;-83
2022/02/16 06:28:32;;;;;;;8.37;1.77;;;;;;;;;;5054773;28;20231;-83
2022/02/16 06:31:01;;;;;;;11.40;1.87;;;;;;;;;;5054666;28;20231;-83
2022/02/16 06:33:28;;;;;;;8.87;2.00;;;;;;;;;;5055134;28;20229;-83
2022/02/16 06:35:55;;;;;;;5.90;1.70;;;;;;;;;;5054632;28;20306;-83
2022/02/16 06:38:23;;;;;;;8.10;2.10;;;;;;;;;;5053586;28;20220;-84
2022/02/16 06:40:51;;;;;;;6.27;2.00;;;;;;;;;;5054412;28;20273;-83
2022/02/16 06:43:18;;;;;;;8.33;1.70;;;;;;;;;;5053142;28;20314;-83
2022/02/16 06:45:46;;;;;;;9.87;2.50;;;;;;;;;;5054223;28;20672;-85
2022/02/16 06:48:13;;;;;;;12.17;2.10;;;;;;;;;;5054981;28;20203;-85
2022/02/16 06:50:40;;;;;;;9.40;2.20;;;;;;;;;;5054777;28;20234;-86
2022/02/16 06:53:08;;;;;;;8.47;2.13;;;;;;;;;;5054731;28;20706;-84
2022/02/16 06:55:35;;;;;;;7.80;1.80;;;;;;;;;;5049753;28;20228;-88
2022/02/16 06:58:04;;;;;;;12.20;2.30;;;;;;;;;;5051208;28;20248;-88
2022/02/16 07:00:31;;;;;;;10.90;2.40;;;;;;;;;;5054804;28;20224;-89
2022/02/16 07:02:58;;;;;;;14.37;2.20;;;;;;;;;;5047213;28;20257;-89
2022/02/16 07:05:26;;;;;;;16.70;2.53;;;;;;;;;;5054660;28;20267;-89
2022/02/16 07:07:53;;;;;;;9.63;2.50;;;;;;;;;;5056659;28;20695;-88
2022/02/16 07:10:20;;;;;;;12.23;2.40;;;;;;;;;;5055283;28;20621;-89
2022/02/16 07:12:47;;;;;;;14.27;2.60;;;;;;;;;;5054670;28;20582;-89
2022/02/16 07:15:16;;;;;;;15.50;2.87;;;;;;;;;;5054847;28;20222;-88
2022/02/16 07:17:44;;;;;;;10.17;2.47;;;;;;;;;;5054975;28;20247;-88
2022/02/16 07:20:12;;;;;;;7.73;2.33;;;;;;;;;;5053561;28;20241;-88
2022/02/16 07:22:40;;;;;;;10.00;2.07;;;;;;;;;;5054308;28;20215;-89
2022/02/16 07:25:08;;;;;;;11.77;2.53;;;;;;;;;;5055018;28;20299;-89
2022/02/16 07:27:35;;;;;;;11.17;2.80;;;;;;;;;;5055236;28;20191;-88
2022/02/16 07:30:02;;;;;;;8.37;2.20;;;;;;;;;;5052780;28;20258;-89
2022/02/16 07:32:31;;;;;;;6.53;2.07;;;;;;;;;;5056575;28;20222;-88
2022/02/16 07:34:59;;;;;;;8.93;2.10;;;;;;;;;;5054816;28;20242;-89
2022/02/16 07:37:26;;;;;;;7.23;2.30;;;;;;;;;;5054605;28;20239;-90
2022/02/16 07:39:53;;;;;;;8.87;2.30;;;;;;;;;;5054528;28;20291;-89
2022/02/16 07:42:21;;;;;;;9.73;2.40;;;;;;;;;;5053645;28;20246;-89
2022/02/16 07:44:49;;;;;;;10.97;2.30;;;;;;;;;;5054314;28;20235;-89
2022/02/16 07:47:16;;;;;;;9.03;2.30;;;;;;;;;;5053785;28;20620;-89
2022/02/16 07:49:45;;;;;;;9.00;2.80;;;;;;;;;;5054163;28;20236;-89
2022/02/16 07:52:12;;;;;;;9.90;2.43;;;;;;;;;;5053290;28;20204;-88
2022/02/16 07:54:39;;;;;;;10.47;2.30;;;;;;;;;;5054049;28;20634;-89
2022/02/16 07:57:06;;;;;;;8.63;2.30;;;;;;;;;;5052620;28;20265;-89
2022/02/16 07:59:35;;;;;;;9.00;2.00;;;;;;;;;;5053489;28;20188;-88
2022/02/16 08:02:03;;;;;;;8.97;1.90;;;;;;;;;;5053962;28;20208;-88
2022/02/16 08:04:30;;;;;;;10.70;2.60;;;;;;;;;;5053253;28;20231;-88
2022/02/16 08:07:00;;;;;;;11.43;2.87;;;;;;;;;;5054792;28;20235;-88
2022/02/16 08:09:28;;;;;;;10.43;2.50;;;;;;;;;;5045203;28;20220;-88
2022/02/16 08:11:55;;;;;;;8.80;2.27;;;;;;;;;;5053339;28;20187;-89
2022/02/16 08:14:23;;;;;;;5.33;1.73;;;;;;;;;;5053033;28;20235;-89
2022/02/16 08:16:50;;;;;;;6.57;2.00;;;;;;;;;;5053044;28;20762;-88
2022/02/16 08:19:17;;;;;;;7.83;2.20;;;;;;;;;;5053155;28;20675;-88
2022/02/16 08:21:46;;;;;;;8.87;2.03;;;;;;;;;;5052615;28;20675;-89
2022/02/16 08:24:15;;;;;;;7.93;1.87;;;;;;;;;;5048235;28;20742;-89
2022/02/16 08:26:42;;;;;;;6.70;1.80;;;;;;;;;;5052804;28;20298;-89
2022/02/16 08:29:10;;;;;;;6.60;2.10;;;;;;;;;;5053495;28;20637;-89
2022/02/16 08:31:37;;;;;;;7.73;1.80;;;;;;;;;;5051810;28;20227;-89
2022/02/16 08:34:04;;;;;;;3.93;1.93;;;;;;;;;;5052904;28;20254;-88
2022/02/16 08:36:31;;;;;;;8.70;2.17;;;;;;;;;;5052043;28;20223;-87
2022/02/16 08:38:59;;;;;;;5.20;2.13;;;;;;;;;;5051834;28;20207;-88
2022/02/16 08:41:54;;;;;;;6.00;2.47;;;;;;;;;;5053016;28;20202;-89
2022/02/16 08:44:23;;;;;;;7.57;3.60;;;;;;;;;;5052480;28;20717;-89
2022/02/16 08:46:50;;;;;;;9.47;4.40;;;;;;;;;;5051321;28;20227;-88
2022/02/16 08:49:18;;;;;;;8.83;4.30;;;;;;;;;;5051928;28;20637;-89
2022/02/16 08:51:45;;;;;;;7.30;4.77;;;;;;;;;;5052321;28;20196;-88
2022/02/16 08:54:13;;;;;;;11.63;5.37;;;;;;;;;;5051497;28;20227;-88
2022/02/16 08:56:41;;;;;;;11.17;5.20;;;;;;;;;;5052754;28;20294;-89
2022/02/16 08:59:09;;;;;;;9.43;5.43;;;;;;;;;;5051609;28;20207;-88
2022/02/16 09:01:37;;;;;;;7.67;5.10;;;;;;;;;;5052612;28;20278;-85
2022/02/16 09:04:05;;;;;;;6.50;4.33;;;;;;;;;;5051468;28;20224;-86
2022/02/16 09:06:33;;;;;;;6.63;4.00;;;;;;;;;;5048410;28;20241;-87
2022/02/16 09:09:01;;;;;;;6.50;3.67;;;;;;;;;;5051730;28;20200;-87
2022/02/16 09:11:29;;;;;;;5.13;3.00;;;;;;;;;;5051752;28;20210;-89
2022/02/16 09:13:57;;;;;;;5.47;2.50;;;;;;;;;;5046836;28;20257;-89
2022/02/16 09:16:24;;;;;;;6.17;2.47;;;;;;;;;;5051062;28;20208;-89
2022/02/16 09:18:53;;;;;;;4.57;1.93;;;;;;;;;;5051909;28;20310;-89
2022/02/16 09:21:20;;;;;;;4.43;1.97;;;;;;;;;;5051965;28;20227;-89
2022/02/16 09:23:47;;;;;;;5.13;1.80;;;;;;;;;;5051934;28;20204;-88
2022/02/16 09:26:16;;;;;;;3.80;1.57;;;;;;;;;;5052356;28;20645;-88
2022/02/16 09:28:43;;;;;;;6.37;1.50;;;;;;;;;;5051721;28;20219;-88
2022/02/16 09:31:10;;;;;;;3.93;1.50;;;;;;;;;;5052325;28;20223;-88
2022/02/16 09:36:24;;;;;;;3.30;1.30;;;;;;;;;;5050186;28;20206;-86
2022/02/16 09:38:52;;;;;;;3.97;1.40;;;;;;;;;;5050480;28;20232;-88
2022/02/16 09:41:19;;;;;;;5.07;1.50;;;;;;;;;;5051724;28;20609;-84
2022/02/16 09:43:47;;;;;;;2.50;1.23;;;;;;;;;;5050063;28;20250;-84
2022/02/16 09:46:15;;;;;;;5.63;1.33;;;;;;;;;;5050587;28;20259;-84
2022/02/16 09:48:42;;;;;;;3.70;1.67;;;;;;;;;;5051521;28;20241;-85
2022/02/16 09:51:09;;;;;;;3.90;1.43;;;;;;;;;;5051178;28;20276;-85
2022/02/16 09:53:38;;;;;;;3.30;1.30;;;;;;;;;;5050302;28;20293;-85
2022/02/16 09:56:06;;;;;;;5.07;1.50;;;;;;;;;;5049999;28;20227;-85
2022/02/16 09:58:33;;;;;;;4.47;1.43;;;;;;;;;;5050384;28;20250;-85
2022/02/16 10:01:01;;;;;;;2.93;1.20;;;;;;;;;;5050382;28;20279;-86
2022/02/16 10:03:28;;;;;;;4.47;1.20;;;;;;;;;;5050678;28;20199;-86
2022/02/16 10:05:56;;;;;;;2.73;1.30;;;;;;;;;;5050539;28;20200;-86
2022/02/16 10:08:38;;;;;;;3.43;1.07;;;;;;;;;;5050577;28;20203;-86
2022/02/16 10:11:06;;;;;;;5.00;1.30;;;;;;;;;;5049086;28;20727;-85
2022/02/16 10:13:34;;;;;;;5.63;1.47;;;;;;;;;;5051193;28;20246;-86
2022/02/16 10:16:02;;;;;;;5.37;2.30;;;;;;;;;;5051392;28;20211;-86
2022/02/16 10:18:29;;;;;;;5.90;2.43;;;;;;;;;;5050902;28;20605;-87
2022/02/16 10:21:06;;;;;;;7.37;2.20;;;;;;;;;;5050771;28;20246;-87
2022/02/16 10:23:40;;;;;;;6.83;1.70;;;;;;;;;;5050920;28;20195;-87
2022/02/16 10:26:09;;;;;;;4.30;1.50;;;;;;;;;;5050931;28;20196;-87
2022/02/16 10:28:41;;;;;;;3.13;1.50;;;;;;;;;;5045548;28;20200;-87
2022/02/16 10:31:09;;;;;;;4.33;1.40;;;;;;;;;;5050143;28;20291;-88
2022/02/16 10:33:39;;;;;;;3.20;1.30;;;;;;;;;;5050945;28;20242;-87
2022/02/16 10:36:07;;;;;;;4.07;1.60;;;;;;;;;;5050746;28;20215;-86
2022/02/16 10:38:36;;;;;;;3.27;1.27;;;;;;;;;;5050776;28;20272;-85
2022/02/16 10:41:05;;;;;;;3.67;1.50;;;;;;;;;;5050455;28;20574;-86
2022/02/16 10:43:35;;;;;;;3.40;1.30;;;;;;;;;;5049388;28;20255;-84
2022/02/16 10:46:02;;;;;;;3.90;1.30;;;;;;;;;;5049021;28;20235;-85
2022/02/16 10:48:30;;;;;;;3.43;1.67;;;;;;;;;;5050024;28;20200;-85
2022/02/16 10:50:58;;;;;;;4.53;1.77;;;;;;;;;;5050348;28;20669;-85
2022/02/16 10:53:28;;;;;;;4.47;1.80;;;;;;;;;;5050269;28;20262;-85
2022/02/16 10:55:56;;;;;;;2.40;1.33;;;;;;;;;;5050616;28;20195;-85
2022/02/16 10:58:24;;;;;;;2.67;1.50;;;;;;;;;;5050625;28;20277;-85
2022/02/16 11:00:53;;;;;;;2.87;1.43;;;;;;;;;;5050224;28;20211;-85
2022/02/16 11:03:31;;;;;;;4.13;1.43;;;;;;;;;;5049668;28;20207;-85
2022/02/16 11:05:59;;;;;;;5.57;1.80;;;;;;;;;;5052305;28;20630;-84
2022/02/16 11:08:27;;;;;;;3.77;1.57;;;;;;;;;;5053823;28;20287;-85
2022/02/16 11:10:55;;;;;;;6.20;1.70;;;;;;;;;;5053371;28;20265;-86
2022/02/16 11:13:25;;;;;;;4.10;1.83;;;;;;;;;;5053642;28;20703;-85
2022/02/16 11:15:54;;;;;;;5.87;2.00;;;;;;;;;;5052488;28;20611;-85
2022/02/16 11:18:22;;;;;;;8.97;2.67;;;;;;;;;;5052993;28;20219;-85
2022/02/16 11:21:06;;;;;;;6.33;2.40;;;;;;;;;;5053525;28;20195;-85
2022/02/16 11:23:38;;;;;;;5.83;2.57;;;;;;;;;;5054532;28;20203;-86
2022/02/16 11:26:20;;;;;;;6.00;2.80;;;;;;;;;;5054107;28;20208;-86
2022/02/16 11:28:47;;;;;;;9.60;3.67;;;;;;;;;;5054478;28;20651;-86
2022/02/16 11:31:28;;;;;;;6.83;2.80;;;;;;;;;;5054100;28;20755;-85
2022/02/16 11:34:18;;;;;;;8.63;3.30;;;;;;;;;;5050581;28;20195;-86
2022/02/16 11:36:53;;;;;;;5.80;2.77;;;;;;;;;;5052401;28;20196;-86
2022/02/16 11:48:04;;;;;;;6.20;2.70;;;;;;;;;;5056179;28;20192;-84
2022/02/16 11:50:45;;;;;;;7.03;3.93;;;;;;;;;;5049909;28;20196;-86
2022/02/16 11:53:14;;;;;;;7.10;3.10;;;;;;;;;;5052945;28;20337;-86
2022/02/16 11:55:42;;;;;;;6.20;3.43;;;;;;;;;;5053118;28;20206;-84
2022/02/16 11:58:20;;;;;;;6.60;3.40;;;;;;;;;;5053026;28;20265;-85
2022/02/16 12:00:57;;;;;;;2.87;1.93;;;;;;;;;;5046925;28;20234;-86
2022/02/16 12:03:26;;;;;;;4.63;2.40;;;;;;;;;;5051938;28;20253;-86
2022/02/16 12:06:11;;;;;;;3.77;1.90;;;;;;;;;;5052956;28;20199;-85
2022/02/16 12:08:42;;;;;;;5.33;2.90;;;;;;;;;;5052441;28;20246;-85
2022/02/16 12:11:22;;;;;;;6.13;2.70;;;;;;;;;;5052405;28;20562;-84
2022/02/16 12:13:52;;;;;;;4.23;2.73;;;;;;;;;;5052507;28;20195;-85
2022/02/16 12:16:23;;;;;;;4.73;2.73;;;;;;;;;;5052832;28;20290;-85
2022/02/16 12:18:51;;;;;;;2.57;1.77;;;;;;;;;;5050431;28;20298;-85
2022/02/16 12:21:23;;;;;;;2.43;1.43;;;;;;;;;;5048066;28;20806;-87
2022/02/16 12:23:59;;;;;;;5.00;1.80;;;;;;;;;;5051472;28;20192;-85
2022/02/16 12:26:27;;;;;;;4.80;2.03;;;;;;;;;;5051717;28;20199;-86
2022/02/16 12:28:58;;;;;;;1.90;1.43;;;;;;;;;;5051668;28;20204;-85
2022/02/16 12:31:27;;;;;;;5.10;1.77;;;;;;;;;;5052103;28;20208;-85
2022/02/16 12:33:55;;;;;;;3.50;1.67;;;;;;;;;;5052321;28;20235;-85
2022/02/16 12:36:23;;;;;;;4.73;1.80;;;;;;;;;;5051427;28;20196;-85
2022/02/16 12:38:54;;;;;;;4.30;1.57;;;;;;;;;;5051708;28;20226;-85
2022/02/16 12:41:21;;;;;;;3.60;1.83;;;;;;;;;;5051692;28;20253;-86
2022/02/16 12:43:53;;;;;;;3.53;1.80;;;;;;;;;;5050787;28;20303;-85
2022/02/16 12:46:20;;;;;;;3.50;1.93;;;;;;;;;;5051133;28;20289;-85
2022/02/16 12:48:48;;;;;;;2.77;1.53;;;;;;;;;;5052319;28;20188;-85
2022/02/16 12:51:20;;;;;;;3.60;1.60;;;;;;;;;;5050771;28;20238;-85
2022/02/16 12:53:49;;;;;;;4.00;1.70;;;;;;;;;;5051969;28;20206;-85
2022/02/16 12:56:18;;;;;;;2.77;1.90;;;;;;;;;;5051284;28;20196;-86
2022/02/16 12:58:46;;;;;;;3.27;1.57;;;;;;;;;;5051439;28;20243;-86
2022/02/16 13:01:13;;;;;;;4.33;1.60;;;;;;;;;;5051262;28;20218;-85
2022/02/16 13:03:40;;;;;;;3.93;1.70;;;;;;;;;;5051323;28;20192;-86
2022/02/16 13:06:08;;;;;;;5.10;2.03;;;;;;;;;;5051884;28;20279;-86
2022/02/16 13:08:38;;;;;;;2.80;1.83;;;;;;;;;;5052062;28;20241;-86
2022/02/16 13:11:05;;;;;;;4.00;1.30;;;;;;;;;;5051190;28;20204;-86
2022/02/16 13:13:35;;;;;;;2.70;1.30;;;;;;;;;;5051016;28;20226;-86
2022/02/16 13:16:03;;;;;;;4.90;2.53;;;;;;;;;;5051288;28;20208;-87
2022/02/16 13:18:32;;;;;;;6.57;1.60;;;;;;;;;;5051379;28;20706;-86
2022/02/16 13:21:13;;;;;;;2.93;1.30;;;;;;;;;;5051282;28;20196;-85
2022/02/16 13:23:41;;;;;;;5.00;2.13;;;;;;;;;;5051273;28;20612;-85
2022/02/16 13:26:10;;;;;;;2.60;1.23;;;;;;;;;;5050970;28;20211;-86
2022/02/16 13:28:39;;;;;;;4.47;1.70;;;;;;;;;;5050394;28;20200;-87
2022/02/16 13:31:14;;;;;;;1.50;1.03;;;;;;;;;;5050441;28;20211;-87
2022/02/16 13:33:41;;;;;;;2.57;1.30;;;;;;;;;;5049703;28;20671;-86
2022/02/16 13:36:16;;;;;;;3.17;1.23;;;;;;;;;;5051178;28;20200;-86
2022/02/16 13:38:43;;;;;;;3.63;1.37;;;;;;;;;;5051176;28;21030;-85
2022/02/16 13:41:11;;;;;;;1.17;0.80;;;;;;;;;;5051228;28;20671;-85
2022/02/16 13:43:51;;;;;;;1.47;0.70;;;;;;;;;;5050208;28;20636;-86
2022/02/16 13:46:22;;;;;;;2.83;0.80;;;;;;;;;;5051629;28;20255;-88
2022/02/16 13:48:51;;;;;;;1.57;0.80;;;;;;;;;;5050841;28;20590;-87
2022/02/16 13:51:22;;;;;;;1.73;0.93;;;;;;;;;;5050813;28;20199;-86
2022/02/16 13:53:52;;;;;;;1.77;0.70;;;;;;;;;;5048292;28;20194;-86
2022/02/16 13:56:27;;;;;;;2.83;0.83;;;;;;;;;;5050608;28;20192;-87
2022/02/16 13:59:06;;;;;;;3.40;0.97;;;;;;;;;;5050524;28;20635;-87
2022/02/16 14:01:35;;;;;;;1.20;0.90;;;;;;;;;;5051756;28;20242;-86
2022/02/16 14:04:03;;;;;;;2.73;1.20;;;;;;;;;;5050516;28;20219;-87
2022/02/16 14:06:31;;;;;;;2.33;1.30;;;;;;;;;;5052263;28;20274;-87
2022/02/16 14:08:58;;;;;;;1.93;1.10;;;;;;;;;;5051591;28;20192;-88
2022/02/16 14:11:26;;;;;;;4.63;1.13;;;;;;;;;;5051986;28;20656;-87
2022/02/16 14:13:53;;;;;;;2.93;1.30;;;;;;;;;;5050259;28;20196;-87
2022/02/16 14:16:22;;;;;;;2.17;1.53;;;;;;;;;;5051405;28;20672;-87
2022/02/16 14:21:30;;;;;;;2.50;1.30;;;;;;;;;;5046061;28;20672;-88
2022/02/16 14:23:59;;;;;;;2.87;1.33;;;;;;;;;;5051601;28;20559;-87
2022/02/16 14:26:27;;;;;;;4.20;1.40;;;;;;;;;;5047321;28;20199;-86
2022/02/16 14:28:55;;;;;;;3.40;1.67;;;;;;;;;;5050345;28;20204;-87
2022/02/16 14:31:24;;;;;;;4.33;2.07;;;;;;;;;;5050516;28;20204;-87
2022/02/16 14:33:52;;;;;;;3.43;1.77;;;;;;;;;;5050577;28;20258;-86
2022/02/16 14:36:19;;;;;;;2.80;1.50;;;;;;;;;;5049670;28;20250;-86
2022/02/16 14:38:46;;;;;;;2.80;1.50;;;;;;;;;;5051538;28;20247;-86
2022/02/16 14:41:14;;;;;;;3.80;1.80;;;;;;;;;;5053484;28;20279;-86
2022/02/16 14:43:41;;;;;;;3.97;2.10;;;;;;;;;;5052794;28;20235;-85
2022/02/16 14:46:08;;;;;;;3.20;2.10;;;;;;;;;;5051351;28;20239;-85
2022/02/16 14:48:37;;;;;;;3.60;1.60;;;;;;;;;;5053901;28;20286;-85
2022/02/16 14:51:04;;;;;;;3.63;1.63;;;;;;;;;;5053078;28;20196;-84
2022/02/16 14:53:31;;;;;;;3.70;1.40;;;;;;;;;;5052273;28;20238;-85
2022/02/16 14:55:58;;;;;;;3.53;1.50;;;;;;;;;;5052567;28;20223;-86
2022/02/16 14:58:26;;;;;;;2.77;1.47;;;;;;;;;;5052808;28;20235;-84
2022/02/16 15:00:53;;;;;;;5.00;1.60;;;;;;;;;;5053637;28;20703;-85
2022/02/16 15:03:20;;;;;;;3.93;1.50;;;;;;;;;;5053559;28;20206;-84